createdAt,value
2022-08-19T00:00:23.074Z,17.36
2022-08-19T00:02:24.775Z,17.40
2022-08-19T00:04:29.983Z,17.42
2022-08-19T00:06:31.918Z,17.45
2022-08-19T00:08:33.492Z,17.47
2022-08-19T00:10:35.104Z,17.47
2022-08-19T00:12:39.530Z,17.47
2022-08-19T00:14:48.629Z,17.49
2022-08-19T00:16:52.449Z,17.52
2022-08-19T00:18:57.458Z,17.51
2022-08-19T00:21:00.374Z,17.52
2022-08-19T00:23:01.881Z,17.54
2022-08-19T00:25:03.960Z,17.55
2022-08-19T00:27:25.960Z,17.56
2022-08-19T00:29:27.543Z,17.55
2022-08-19T00:31:29.107Z,17.57
2022-08-19T00:33:33.463Z,17.61
2022-08-19T00:35:35.196Z,17.64
2022-08-19T00:37:36.932Z,17.68
2022-08-19T00:39:38.637Z,17.72
2022-08-19T00:41:40.448Z,17.76
2022-08-19T00:43:42.185Z,17.75
2022-08-19T00:45:44.593Z,17.75
2022-08-19T00:47:46.498Z,17.74
2022-08-19T00:49:54.713Z,17.74
2022-08-19T00:52:17.734Z,17.73
2022-08-19T00:54:20.179Z,17.69
2022-08-19T00:56:32.318Z,17.68
2022-08-19T00:58:36.242Z,17.71
2022-08-19T01:00:38.808Z,17.68
2022-08-19T01:02:41.890Z,17.69
2022-08-19T01:04:43.430Z,17.68
2022-08-19T01:06:44.974Z,17.69
2022-08-19T01:08:46.900Z,17.69
2022-08-19T01:10:55.805Z,17.67
2022-08-19T01:13:00.449Z,17.64
2022-08-19T01:15:02.386Z,17.65
2022-08-19T01:17:04.783Z,17.68
2022-08-19T01:19:20.034Z,17.67
2022-08-19T01:21:35.460Z,17.69
2022-08-19T01:23:45.928Z,17.71
2022-08-19T01:25:54.654Z,17.74
2022-08-19T01:27:56.719Z,17.75
2022-08-19T01:30:06.752Z,17.73
2022-08-19T01:32:32.006Z,17.71
2022-08-19T01:34:35.123Z,17.70
2022-08-19T01:36:45.350Z,17.68
2022-08-19T01:38:47.222Z,17.66
2022-08-19T01:40:48.830Z,17.65
2022-08-19T01:42:51.319Z,17.65
2022-08-19T01:44:52.825Z,17.68
2022-08-19T01:46:54.372Z,17.72
2022-08-19T01:48:55.950Z,17.72
2022-08-19T01:50:57.453Z,17.73
2022-08-19T01:53:06.379Z,17.73
2022-08-19T01:55:13.768Z,17.76
2022-08-19T01:57:15.775Z,17.80
2022-08-19T01:59:21.511Z,17.80
2022-08-19T02:01:23.078Z,17.75
2022-08-19T02:03:27.424Z,17.74
2022-08-19T02:05:30.185Z,17.76
2022-08-19T02:07:31.791Z,17.77
2022-08-19T02:09:33.615Z,17.79
2022-08-19T02:11:37.407Z,17.81
2022-08-19T02:13:38.906Z,17.79
2022-08-19T02:15:40.875Z,17.76
2022-08-19T02:17:43.136Z,17.71
2022-08-19T02:19:44.634Z,17.69
2022-08-19T02:21:46.157Z,17.68
2022-08-19T02:23:48.122Z,17.66
2022-08-19T02:25:50.201Z,17.59
2022-08-19T02:27:51.717Z,17.51
2022-08-19T02:29:53.594Z,17.39
2022-08-19T02:31:55.090Z,17.35
2022-08-19T02:33:57.489Z,17.33
2022-08-19T02:35:59.042Z,17.30
2022-08-19T02:38:19.733Z,17.25
2022-08-19T02:40:22.092Z,17.19
2022-08-19T02:42:23.882Z,17.11
2022-08-19T02:44:31.354Z,17.09
2022-08-19T02:46:34.452Z,17.12
2022-08-19T02:48:35.936Z,17.14
2022-08-19T02:50:41.195Z,17.15
2022-08-19T02:52:54.788Z,17.11
2022-08-19T02:54:58.383Z,17.04
2022-08-19T02:56:59.880Z,16.99
2022-08-19T02:59:01.401Z,16.95
2022-08-19T03:01:03.426Z,16.95
2022-08-19T03:03:05.405Z,16.97
2022-08-19T03:05:09.064Z,16.99
2022-08-19T03:07:14.839Z,17.01
2022-08-19T03:09:17.847Z,17.02
2022-08-19T03:11:24.911Z,16.99
2022-08-19T03:13:26.575Z,16.94
2022-08-19T03:15:28.148Z,16.88
2022-08-19T03:17:29.651Z,16.83
2022-08-19T03:19:32.472Z,16.83
2022-08-19T03:21:35.348Z,16.84
2022-08-19T03:23:37.105Z,16.87
2022-08-19T03:25:42.928Z,16.89
2022-08-19T03:27:44.503Z,16.91
2022-08-19T03:29:46.582Z,16.91
2022-08-19T03:31:52.309Z,16.90
2022-08-19T03:33:54.328Z,16.86
2022-08-19T03:36:05.982Z,16.87
2022-08-19T03:38:08.253Z,16.88
2022-08-19T03:40:10.158Z,16.88
2022-08-19T03:42:32.503Z,16.85
2022-08-19T03:44:37.293Z,16.83
2022-08-19T03:46:38.818Z,16.80
2022-08-19T03:48:46.097Z,16.68
2022-08-19T03:50:47.584Z,16.51
2022-08-19T03:52:53.019Z,16.36
2022-08-19T03:54:54.765Z,16.31
2022-08-19T03:56:57.451Z,16.33
2022-08-19T03:59:00.595Z,16.37
2022-08-19T04:01:02.114Z,16.43
2022-08-19T04:03:03.789Z,16.41
2022-08-19T04:05:06.516Z,16.42
2022-08-19T04:07:10.352Z,16.45
2022-08-19T04:09:12.652Z,16.48
2022-08-19T04:11:16.808Z,16.42
2022-08-19T04:13:18.886Z,16.40
2022-08-19T04:15:21.649Z,16.42
2022-08-19T04:17:23.380Z,16.43
2022-08-19T04:19:25.079Z,16.46
2022-08-19T04:21:28.283Z,16.40
2022-08-19T04:23:29.853Z,16.36
2022-08-19T04:25:36.959Z,16.38
2022-08-19T04:27:38.454Z,16.36
2022-08-19T04:29:41.331Z,16.36
2022-08-19T04:31:46.061Z,16.39
2022-08-19T04:33:47.788Z,16.37
2022-08-19T04:35:52.524Z,16.33
2022-08-19T04:37:54.008Z,16.28
2022-08-19T04:40:14.620Z,16.24
2022-08-19T04:42:37.255Z,16.19
2022-08-19T04:44:44.045Z,16.19
2022-08-19T04:46:51.405Z,16.19
2022-08-19T04:48:54.451Z,16.20
2022-08-19T04:51:01.047Z,16.20
2022-08-19T04:53:02.707Z,16.21
2022-08-19T04:55:06.952Z,16.23
2022-08-19T04:57:11.123Z,16.22
2022-08-19T04:59:12.973Z,16.23
2022-08-19T05:01:18.880Z,16.22
2022-08-19T05:03:21.713Z,16.18
2022-08-19T05:05:23.208Z,16.12
2022-08-19T05:07:24.801Z,16.07
2022-08-19T05:09:26.368Z,16.01
2022-08-19T05:11:33.961Z,16.02
2022-08-19T05:13:35.542Z,16.03
2022-08-19T05:15:37.273Z,16.03
2022-08-19T05:17:39.373Z,16.03
2022-08-19T05:19:59.589Z,16.07
2022-08-19T05:22:20.492Z,16.15
2022-08-19T05:24:24.441Z,16.21
2022-08-19T05:26:27.068Z,16.23
2022-08-19T05:28:28.622Z,16.26
2022-08-19T05:30:46.799Z,16.29
2022-08-19T05:32:49.216Z,16.34
2022-08-19T05:34:50.750Z,16.41
2022-08-19T05:36:57.190Z,16.47
2022-08-19T05:38:58.684Z,16.49
2022-08-19T05:41:00.207Z,16.51
2022-08-19T05:43:01.699Z,16.51
2022-08-19T05:45:05.359Z,16.48
2022-08-19T05:47:09.340Z,16.42
2022-08-19T05:49:10.916Z,16.35
2022-08-19T05:51:12.720Z,16.35
2022-08-19T05:53:15.306Z,16.39
2022-08-19T05:55:16.783Z,16.43
2022-08-19T05:57:20.218Z,16.51
2022-08-19T05:59:22.548Z,16.58
2022-08-19T06:01:27.552Z,16.63
2022-08-19T06:03:29.033Z,16.60
2022-08-19T06:05:31.667Z,16.59
2022-08-19T06:07:47.944Z,16.63
2022-08-19T06:10:00.782Z,16.68
2022-08-19T06:12:03.949Z,16.74
2022-08-19T06:14:09.522Z,16.74
2022-08-19T06:16:24.674Z,16.74
2022-08-19T06:18:26.186Z,16.72
2022-08-19T06:20:54.040Z,16.75
2022-08-19T06:22:51.323Z,16.86
2022-08-19T06:24:54.592Z,16.93
2022-08-19T06:27:00.793Z,17.03
2022-08-19T06:29:07.271Z,17.13
2022-08-19T06:31:09.193Z,17.17
2022-08-19T06:33:10.831Z,17.15
2022-08-19T06:35:13.561Z,17.17
2022-08-19T06:37:15.166Z,17.09
2022-08-19T06:39:20.495Z,17.03
2022-08-19T06:41:22.039Z,16.98
2022-08-19T06:43:23.533Z,16.98
2022-08-19T06:45:34.455Z,17.03
2022-08-19T06:47:37.313Z,17.10
2022-08-19T06:49:39.429Z,17.17
2022-08-19T06:51:48.273Z,17.23
2022-08-19T06:53:52.871Z,17.36
2022-08-19T06:56:00.841Z,17.48
2022-08-19T06:58:04.700Z,17.65
2022-08-19T07:00:13.034Z,17.72
2022-08-19T07:02:14.732Z,17.65
2022-08-19T07:04:19.264Z,17.74
2022-08-19T07:08:43.918Z,18.00
2022-08-19T07:10:46.456Z,18.05
2022-08-19T07:12:50.014Z,18.13
2022-08-19T07:14:51.640Z,18.24
2022-08-19T07:16:56.641Z,18.29
2022-08-19T07:18:59.085Z,18.36
2022-08-19T07:21:30.385Z,18.29
2022-08-19T07:23:32.023Z,18.23
2022-08-19T07:25:33.541Z,18.31
2022-08-19T07:27:35.590Z,18.42
2022-08-19T07:29:37.588Z,18.47
2022-08-19T07:31:39.625Z,18.43
2022-08-19T07:33:44.247Z,18.43
2022-08-19T07:35:45.785Z,18.43
2022-08-19T07:37:47.435Z,18.61
2022-08-19T07:39:49.313Z,18.69
2022-08-19T07:41:51.597Z,18.67
2022-08-19T07:43:54.012Z,18.73
2022-08-19T07:45:59.649Z,18.81
2022-08-19T07:48:02.042Z,18.91
2022-08-19T07:50:07.836Z,18.96
2022-08-19T07:52:10.739Z,18.94
2022-08-19T07:54:12.639Z,19.00
2022-08-19T07:56:15.503Z,19.02
2022-08-19T07:58:20.557Z,19.09
2022-08-19T08:00:24.390Z,19.12
2022-08-19T08:02:26.171Z,19.21
2022-08-19T08:04:47.213Z,19.31
2022-08-19T08:07:07.096Z,19.51
2022-08-19T08:09:12.202Z,19.60
2022-08-19T08:11:15.479Z,19.74
2022-08-19T08:13:17.457Z,19.89
2022-08-19T08:15:19.396Z,19.86
2022-08-19T08:17:48.564Z,19.79
2022-08-19T08:19:46.441Z,19.77
2022-08-19T08:21:49.480Z,19.73
2022-08-19T08:23:55.653Z,19.70
2022-08-19T08:25:59.482Z,19.80
2022-08-19T08:28:01.179Z,19.78
2022-08-19T08:30:03.874Z,19.73
2022-08-19T08:32:14.023Z,19.62
2022-08-19T08:34:16.303Z,19.64
2022-08-19T08:36:18.465Z,19.69
2022-08-19T08:38:19.960Z,19.65
2022-08-19T08:40:28.568Z,19.75
2022-08-19T08:42:33.407Z,19.82
2022-08-19T08:44:37.628Z,19.83
2022-08-19T08:46:46.791Z,19.91
2022-08-19T08:48:57.477Z,19.96
2022-08-19T08:51:02.537Z,20.09
2022-08-19T08:53:09.468Z,20.18
2022-08-19T08:55:14.769Z,20.18
2022-08-19T08:57:28.877Z,20.16
2022-08-19T08:59:39.655Z,20.18
2022-08-19T09:01:41.473Z,20.26
2022-08-19T09:03:46.296Z,20.40
2022-08-19T09:06:04.822Z,20.32
2022-08-19T09:08:29.930Z,20.36
2022-08-19T09:10:44.710Z,20.46
2022-08-19T09:13:01.511Z,20.45
2022-08-19T09:15:08.497Z,20.44
2022-08-19T09:17:10.636Z,20.38
2022-08-19T09:19:12.225Z,20.30
2022-08-19T09:21:15.202Z,20.27
2022-08-19T09:23:16.775Z,20.26
2022-08-19T09:25:26.729Z,20.32
2022-08-19T09:27:42.859Z,20.38
2022-08-19T09:29:54.745Z,20.44
2022-08-19T09:31:56.448Z,20.62
2022-08-19T09:33:58.186Z,20.78
2022-08-19T09:36:21.743Z,20.93
2022-08-19T09:38:31.012Z,21.05
2022-08-19T09:40:37.785Z,21.15
2022-08-19T09:42:50.342Z,21.25
2022-08-19T09:44:52.516Z,21.35
2022-08-19T09:46:54.055Z,21.36
2022-08-19T09:48:59.382Z,21.34
2022-08-19T09:51:11.970Z,21.36
2022-08-19T09:53:13.585Z,21.45
2022-08-19T09:55:16.958Z,21.57
2022-08-19T09:57:19.608Z,21.67
2022-08-19T09:59:21.425Z,21.67
2022-08-19T10:01:26.063Z,21.74
2022-08-19T10:03:30.203Z,21.80
2022-08-19T10:05:49.891Z,21.88
2022-08-19T10:07:51.818Z,21.94
2022-08-19T10:09:53.424Z,22.03
2022-08-19T10:11:55.189Z,22.02
2022-08-19T10:13:57.352Z,22.08
2022-08-19T10:16:08.644Z,22.22
2022-08-19T10:18:12.136Z,22.23
2022-08-19T10:20:13.760Z,22.21
2022-08-19T10:22:16.157Z,22.24
2022-08-19T10:24:17.740Z,22.31
2022-08-19T10:26:23.688Z,22.25
2022-08-19T10:28:28.069Z,22.22
2022-08-19T10:30:31.943Z,22.32
2022-08-19T10:32:34.622Z,22.52
2022-08-19T10:34:37.967Z,22.63
2022-08-19T10:36:56.039Z,22.91
2022-08-19T10:39:02.562Z,23.11
2022-08-19T10:41:20.148Z,23.35
2022-08-19T10:43:21.705Z,23.60
2022-08-19T10:45:26.203Z,23.83
2022-08-19T10:47:31.751Z,24.00
2022-08-19T10:49:53.403Z,24.25
2022-08-19T10:52:18.978Z,24.49
2022-08-19T10:54:31.429Z,24.71
2022-08-19T10:56:53.592Z,25.08
2022-08-19T10:58:55.219Z,25.16
2022-08-19T11:00:58.910Z,25.47
2022-08-19T11:03:00.541Z,25.63
2022-08-19T11:05:12.323Z,25.84
2022-08-19T11:07:14.390Z,26.18
2022-08-19T11:09:20.063Z,26.48
2022-08-19T11:11:22.469Z,26.74
2022-08-19T11:13:24.392Z,26.73
2022-08-19T11:15:26.020Z,26.84
2022-08-19T11:17:27.916Z,26.90
2022-08-19T11:19:29.493Z,27.02
2022-08-19T11:21:37.997Z,27.01
2022-08-19T11:23:39.621Z,26.47
2022-08-19T11:25:41.314Z,26.31
2022-08-19T11:27:44.160Z,26.13
2022-08-19T11:29:45.713Z,25.69
2022-08-19T11:31:49.462Z,25.33
2022-08-19T11:33:54.654Z,25.36
2022-08-19T11:36:00.082Z,25.48
2022-08-19T11:38:02.360Z,25.64
2022-08-19T11:40:05.829Z,25.76
2022-08-19T11:42:28.136Z,26.08
2022-08-19T11:44:31.250Z,26.08
2022-08-19T11:46:32.832Z,26.19
2022-08-19T11:48:35.808Z,26.19
2022-08-19T11:50:37.319Z,25.78
2022-08-19T11:52:38.841Z,25.64
2022-08-19T11:54:40.344Z,25.78
2022-08-19T11:56:42.519Z,25.85
2022-08-19T11:58:44.562Z,25.92
2022-08-19T12:00:46.213Z,25.69
2022-08-19T12:02:47.727Z,25.55
2022-08-19T12:04:49.396Z,25.47
2022-08-19T12:06:51.140Z,25.51
2022-08-19T12:08:53.117Z,25.60
2022-08-19T12:10:54.608Z,25.73
2022-08-19T12:12:58.843Z,25.60
2022-08-19T12:15:00.677Z,25.39
2022-08-19T12:17:03.173Z,25.16
2022-08-19T12:19:06.066Z,24.98
2022-08-19T12:21:07.620Z,25.03
2022-08-19T12:23:10.614Z,25.00
2022-08-19T12:25:12.761Z,24.92
2022-08-19T12:27:14.402Z,24.98
2022-08-19T12:29:30.267Z,25.12
2022-08-19T12:31:32.792Z,25.08
2022-08-19T12:33:34.424Z,24.92
2022-08-19T12:35:36.247Z,24.84
2022-08-19T12:37:38.236Z,24.69
2022-08-19T12:39:43.040Z,24.90
2022-08-19T12:41:54.266Z,24.92
2022-08-19T12:43:56.715Z,24.94
2022-08-19T12:45:58.592Z,25.08
2022-08-19T12:48:00.126Z,25.03
2022-08-19T12:50:06.480Z,25.03
2022-08-19T12:52:09.657Z,25.08
2022-08-19T12:54:11.799Z,25.16
2022-08-19T12:56:15.688Z,25.21
2022-08-19T12:58:18.038Z,25.07
2022-08-19T13:00:22.490Z,25.09
2022-08-19T13:02:23.982Z,25.26
2022-08-19T13:04:25.523Z,25.21
2022-08-19T13:06:27.581Z,25.08
2022-08-19T13:08:29.059Z,24.92
2022-08-19T13:10:36.617Z,24.96
2022-08-19T13:12:38.679Z,24.91
2022-08-19T13:14:41.923Z,25.13
2022-08-19T13:16:44.087Z,25.11
2022-08-19T13:18:48.346Z,24.90
2022-08-19T13:20:53.017Z,24.94
2022-08-19T13:22:55.732Z,25.11
2022-08-19T13:24:57.253Z,25.05
2022-08-19T13:26:59.775Z,25.04
2022-08-19T13:29:19.763Z,25.13
2022-08-19T13:31:42.772Z,25.17
2022-08-19T13:33:44.321Z,25.18
2022-08-19T13:35:47.943Z,25.11
2022-08-19T13:37:49.539Z,25.13
2022-08-19T13:39:51.126Z,25.06
2022-08-19T13:41:52.753Z,25.02
2022-08-19T13:43:55.180Z,25.02
2022-08-19T13:45:57.599Z,25.06
2022-08-19T13:47:59.955Z,25.20
2022-08-19T13:50:05.351Z,25.33
2022-08-19T13:52:06.921Z,25.41
2022-08-19T13:54:09.659Z,25.41
2022-08-19T13:56:24.154Z,25.52
2022-08-19T13:58:27.442Z,25.33
2022-08-19T14:00:31.919Z,25.34
2022-08-19T14:02:33.442Z,25.31
2022-08-19T14:04:38.393Z,25.26
2022-08-19T14:06:39.886Z,25.30
2022-08-19T14:08:46.057Z,25.35
2022-08-19T14:10:48.176Z,25.46
2022-08-19T14:12:50.205Z,25.51
2022-08-19T14:14:51.697Z,25.56
2022-08-19T14:16:53.186Z,25.59
2022-08-19T14:18:54.718Z,25.55
2022-08-19T14:20:57.227Z,25.61
2022-08-19T14:23:00.519Z,25.64
2022-08-19T14:25:02.164Z,25.56
2022-08-19T14:27:04.333Z,25.56
2022-08-19T14:29:06.539Z,25.64
2022-08-19T14:31:09.109Z,25.74
2022-08-19T14:33:10.586Z,25.65
2022-08-19T14:35:13.777Z,25.69
2022-08-19T14:37:15.902Z,25.71
2022-08-19T14:39:18.192Z,25.66
2022-08-19T14:41:24.514Z,25.57
2022-08-19T14:43:25.997Z,25.57
2022-08-19T14:45:29.455Z,25.60
2022-08-19T14:47:30.944Z,25.62
2022-08-19T14:49:41.158Z,25.63
2022-08-19T14:51:46.530Z,25.69
2022-08-19T14:53:50.841Z,25.70
2022-08-19T14:55:52.468Z,25.69
2022-08-19T14:57:54.018Z,25.69
2022-08-19T14:59:58.008Z,25.64
2022-08-19T15:02:00.701Z,25.72
2022-08-19T15:04:22.163Z,25.70
2022-08-19T15:06:25.833Z,25.62
2022-08-19T15:08:29.628Z,25.61
2022-08-19T15:10:31.653Z,25.57
2022-08-19T15:12:34.958Z,25.55
2022-08-19T15:14:38.630Z,25.66
2022-08-19T15:16:41.828Z,25.63
2022-08-19T15:18:45.585Z,25.60
2022-08-19T15:20:48.624Z,25.59
2022-08-19T15:22:52.612Z,25.63
2022-08-19T15:24:55.890Z,25.67
2022-08-19T15:26:58.354Z,25.74
2022-08-19T15:29:01.364Z,25.81
2022-08-19T15:31:04.073Z,25.75
2022-08-19T15:33:06.198Z,25.69
2022-08-19T15:35:08.429Z,25.76
2022-08-19T15:37:10.074Z,25.71
2022-08-19T15:39:11.669Z,25.74
2022-08-19T15:41:23.956Z,25.70
2022-08-19T15:43:25.538Z,25.70
2022-08-19T15:45:32.590Z,25.69
2022-08-19T15:47:35.385Z,25.69
2022-08-19T15:49:37.237Z,25.80
2022-08-19T15:51:41.828Z,25.83
2022-08-19T15:53:43.550Z,25.78
2022-08-19T15:55:46.152Z,25.77
2022-08-19T15:58:06.177Z,25.69
2022-08-19T16:00:28.291Z,25.69
2022-08-19T16:02:48.682Z,25.70
2022-08-19T16:05:13.587Z,25.66
2022-08-19T16:07:15.145Z,25.61
2022-08-19T16:09:29.114Z,25.56
2022-08-19T16:11:39.471Z,25.60
2022-08-19T16:13:41.738Z,25.63
2022-08-19T16:15:43.989Z,25.63
2022-08-19T16:17:45.527Z,25.67
2022-08-19T16:19:58.093Z,25.71
2022-08-19T16:21:59.622Z,25.69
2022-08-19T16:24:05.206Z,25.64
2022-08-19T16:26:06.768Z,25.68
2022-08-19T16:28:09.620Z,25.63
2022-08-19T16:30:11.661Z,25.64
2022-08-19T16:32:13.237Z,25.62
2022-08-19T16:34:14.765Z,25.61
2022-08-19T16:36:16.640Z,25.60
2022-08-19T16:38:19.714Z,25.57
2022-08-19T16:40:22.875Z,25.62
2022-08-19T16:42:24.435Z,25.57
2022-08-19T16:44:29.836Z,25.56
2022-08-19T16:46:31.575Z,25.58
2022-08-19T16:48:34.955Z,25.53
2022-08-19T16:50:49.072Z,25.53
2022-08-19T16:52:50.941Z,25.54
2022-08-19T16:54:52.878Z,25.54
2022-08-19T16:56:56.092Z,25.45
2022-08-19T16:58:59.761Z,25.41
2022-08-19T17:01:04.435Z,25.35
2022-08-19T17:03:14.615Z,25.27
2022-08-19T17:05:16.987Z,25.21
2022-08-19T17:07:19.568Z,25.15
2022-08-19T17:09:26.073Z,25.11
2022-08-19T17:11:31.160Z,25.05
2022-08-19T17:13:32.683Z,25.02
2022-08-19T17:15:34.856Z,25.03
2022-08-19T17:17:37.241Z,25.01
2022-08-19T17:19:41.774Z,24.95
2022-08-19T17:21:43.286Z,24.94
2022-08-19T17:23:44.786Z,24.93
2022-08-19T17:25:46.523Z,24.88
2022-08-19T17:27:48.094Z,24.85
2022-08-19T17:29:49.626Z,24.83
2022-08-19T17:31:51.307Z,24.80
2022-08-19T17:33:52.924Z,24.74
2022-08-19T17:35:56.674Z,24.70
2022-08-19T17:38:03.019Z,24.65
2022-08-19T17:40:07.024Z,24.61
2022-08-19T17:42:09.844Z,24.56
2022-08-19T17:44:11.329Z,24.52
2022-08-19T17:46:20.477Z,24.49
2022-08-19T17:48:24.023Z,24.45
2022-08-19T17:50:25.792Z,24.37
2022-08-19T17:52:27.294Z,24.33
2022-08-19T17:54:33.729Z,24.28
2022-08-19T17:56:35.575Z,24.25
2022-08-19T17:58:38.482Z,24.21
2022-08-19T18:00:53.717Z,24.15
2022-08-19T18:02:58.234Z,24.10
2022-08-19T18:04:59.718Z,24.06
2022-08-19T18:07:04.135Z,24.00
2022-08-19T18:09:06.629Z,23.97
2022-08-19T18:11:08.970Z,23.98
2022-08-19T18:13:17.666Z,23.96
2022-08-19T18:15:21.329Z,23.94
2022-08-19T18:17:23.422Z,23.93
2022-08-19T18:19:25.980Z,23.92
2022-08-19T18:21:35.708Z,23.89
2022-08-19T18:23:43.780Z,23.84
2022-08-19T18:25:47.482Z,23.81
2022-08-19T18:27:49.082Z,23.77
2022-08-19T18:29:50.765Z,23.71
2022-08-19T18:31:56.557Z,23.66
2022-08-19T18:33:58.810Z,23.57
2022-08-19T18:36:01.701Z,23.49
2022-08-19T18:38:26.285Z,23.42
2022-08-19T18:40:48.339Z,23.34
2022-08-19T18:43:08.459Z,23.27
2022-08-19T18:45:30.335Z,23.18
2022-08-19T18:47:50.632Z,23.09
2022-08-19T18:49:52.292Z,22.96
2022-08-19T18:51:56.539Z,22.91
2022-08-19T18:53:59.593Z,22.83
2022-08-19T18:56:02.489Z,22.79
2022-08-19T18:58:03.994Z,22.75
2022-08-19T19:00:07.586Z,22.70
2022-08-19T19:02:11.874Z,22.62
2022-08-19T19:04:13.525Z,22.54
2022-08-19T19:06:25.671Z,22.43
2022-08-19T19:08:27.614Z,22.35
2022-08-19T19:10:29.202Z,22.28
2022-08-19T19:12:30.868Z,22.22
2022-08-19T19:14:49.169Z,22.18
2022-08-19T19:16:51.936Z,22.14
2022-08-19T19:18:53.506Z,22.09
2022-08-19T19:20:56.190Z,22.04
2022-08-19T19:22:58.415Z,22.01
2022-08-19T19:25:02.521Z,21.98
2022-08-19T19:27:06.877Z,21.92
2022-08-19T19:29:08.436Z,21.80
2022-08-19T19:31:13.927Z,21.76
2022-08-19T19:33:15.511Z,21.75
2022-08-19T19:35:17.145Z,21.72
2022-08-19T19:37:19.552Z,21.65
2022-08-19T19:39:44.814Z,21.63
2022-08-19T19:41:42.772Z,21.61
2022-08-19T19:43:44.539Z,21.58
2022-08-19T19:45:46.542Z,21.55
2022-08-19T19:47:50.155Z,21.51
2022-08-19T19:50:13.371Z,21.48
2022-08-19T19:52:14.106Z,21.42
2022-08-19T19:54:15.690Z,21.38
2022-08-19T19:56:17.369Z,21.34
2022-08-19T19:58:19.231Z,21.30
2022-08-19T20:00:30.158Z,21.25
2022-08-19T20:02:31.734Z,21.21
2022-08-19T20:04:33.257Z,21.16
2022-08-19T20:06:36.148Z,21.12
2022-08-19T20:08:56.435Z,21.08
2022-08-19T20:11:02.354Z,21.04
2022-08-19T20:13:04.824Z,21.02
2022-08-19T20:15:08.113Z,21.02
2022-08-19T20:17:09.699Z,20.99
2022-08-19T20:19:13.342Z,20.96
2022-08-19T20:21:14.875Z,20.93
2022-08-19T20:23:18.397Z,20.90
2022-08-19T20:25:22.222Z,20.85
2022-08-19T20:27:24.222Z,20.77
2022-08-19T20:29:38.996Z,20.74
2022-08-19T20:31:44.332Z,20.74
2022-08-19T20:34:00.989Z,20.73
2022-08-19T20:36:02.841Z,20.72
2022-08-19T20:38:06.473Z,20.70
2022-08-19T20:40:10.110Z,20.68
2022-08-19T20:42:11.684Z,20.65
2022-08-19T20:44:13.179Z,20.65
2022-08-19T20:46:15.017Z,20.63
2022-08-19T20:48:16.592Z,20.59
2022-08-19T20:50:18.347Z,20.56
2022-08-19T20:52:20.111Z,20.47
2022-08-19T20:54:21.713Z,20.40
2022-08-19T20:56:23.286Z,20.33
2022-08-19T20:58:25.634Z,20.24
2022-08-19T21:00:29.330Z,20.22
2022-08-19T21:02:30.825Z,20.24
2022-08-19T21:04:33.045Z,20.25
2022-08-19T21:06:34.762Z,20.23
2022-08-19T21:08:37.446Z,20.20
2022-08-19T21:10:42.389Z,20.18
2022-08-19T21:12:44.452Z,20.17
2022-08-19T21:14:47.116Z,20.15
2022-08-19T21:16:50.412Z,20.14
2022-08-19T21:18:51.922Z,20.13
2022-08-19T21:20:55.187Z,20.13
2022-08-19T21:22:56.697Z,20.10
2022-08-19T21:24:58.237Z,20.06
2022-08-19T21:27:00.457Z,20.01
2022-08-19T21:29:01.971Z,19.96
2022-08-19T21:31:06.207Z,19.93
2022-08-19T21:33:07.758Z,19.92
2022-08-19T21:35:10.022Z,19.93
2022-08-19T21:37:18.947Z,19.91
2022-08-19T21:39:26.918Z,19.90
2022-08-19T21:41:28.455Z,19.90
2022-08-19T21:43:30.187Z,19.87
2022-08-19T21:45:31.800Z,19.86
2022-08-19T21:47:33.413Z,19.84
2022-08-19T21:49:35.128Z,19.82
2022-08-19T21:51:36.661Z,19.80
2022-08-19T21:53:38.732Z,19.77
2022-08-19T21:55:40.615Z,19.77
2022-08-19T21:57:42.665Z,19.75
2022-08-19T21:59:44.406Z,19.74
2022-08-19T22:01:50.461Z,19.72
2022-08-19T22:03:55.599Z,19.71
2022-08-19T22:05:58.612Z,19.71
2022-08-19T22:08:01.567Z,19.71
2022-08-19T22:10:06.305Z,19.70
2022-08-19T22:12:11.197Z,19.69
2022-08-19T22:14:12.751Z,19.68
2022-08-19T22:16:15.358Z,19.67
2022-08-19T22:18:17.881Z,19.67
2022-08-19T22:20:23.012Z,19.62
2022-08-19T22:22:27.990Z,19.58
2022-08-19T22:24:29.502Z,19.53
2022-08-19T22:26:31.823Z,19.51
2022-08-19T22:28:33.333Z,19.53
2022-08-19T22:30:36.211Z,19.53
2022-08-19T22:32:38.900Z,19.51
2022-08-19T22:34:41.205Z,19.52
2022-08-19T22:36:42.736Z,19.54
2022-08-19T22:38:44.329Z,19.56
2022-08-19T22:40:48.530Z,19.53
2022-08-19T22:43:10.184Z,19.53
2022-08-19T22:45:15.516Z,19.52
2022-08-19T22:47:18.029Z,19.54
2022-08-19T22:49:19.596Z,19.54
2022-08-19T22:51:39.652Z,19.54
2022-08-19T22:53:43.597Z,19.50
2022-08-19T22:55:45.104Z,19.52
2022-08-19T22:57:46.582Z,19.53
2022-08-19T22:59:50.179Z,19.58
2022-08-19T23:01:51.675Z,19.60
2022-08-19T23:03:53.570Z,19.62
2022-08-19T23:05:56.204Z,19.62
2022-08-19T23:07:58.578Z,19.60
2022-08-19T23:10:00.310Z,19.58
2022-08-19T23:12:01.813Z,19.58
2022-08-19T23:14:05.585Z,19.58
2022-08-19T23:16:07.504Z,19.57
2022-08-19T23:18:09.022Z,19.57
2022-08-19T23:20:14.446Z,19.57
2022-08-19T23:22:17.817Z,19.54
2022-08-19T23:24:19.431Z,19.53
2022-08-19T23:26:21.337Z,19.52
2022-08-19T23:28:42.175Z,19.50
2022-08-19T23:30:48.657Z,19.46
2022-08-19T23:32:50.141Z,19.38
2022-08-19T23:34:52.512Z,19.35
2022-08-19T23:36:54.052Z,19.29
2022-08-19T23:38:55.601Z,19.30
2022-08-19T23:41:00.602Z,19.28
2022-08-19T23:43:04.036Z,19.27
2022-08-19T23:45:09.995Z,19.29
2022-08-19T23:47:12.336Z,19.30
2022-08-19T23:49:14.992Z,19.33
2022-08-19T23:51:17.484Z,19.34
2022-08-19T23:53:19.480Z,19.34
2022-08-19T23:55:24.919Z,19.31
2022-08-19T23:57:26.415Z,19.27
2022-08-19T23:59:27.893Z,19.21
